SBNF

Details ICAO SBNF (NVT)
Name Ministro Victor Konder
Region Brazil
Timezone America/Sao_Paulo (UTC-3.0)
Plans Departing 45
Arriving 46
Stats Elevation 18 ft / 5 m (AMSL)
Location -26.879998° -48.651387°
Runways 1
Magnetic Variation 19.573° W
Sunrise 2018-05-22 09:52:07 UTC / 2018-05-22 06:52:07 Local
Sunset 2018-05-22 20:33:18 UTC / 2018-05-22 17:33:18 Local
Advertisement - Login to hide

Runways

ID Width Length Bearing (true) Bearing (mag) Surface Threshold Offset Overrun Length
07 148 ft / 45 m 5,580 ft / 1,701 m 54.86° 74.43° Asphalt 0 ft / 0 m 190 ft / 58 m
25 148 ft / 45 m 5,580 ft / 1,701 m 234.85° 254.42° Asphalt 0 ft / 0 m 195 ft / 59 m

Map

Weather


0- 5 10 15 20 25 30 35+ Temperature / ° C

Clouds and Precipitation
Forecast for 2018-05-22 00:00 UTC. Updated 5 hours ago

Ground ~20,000 ft ~40,000 ft Winds

METAR

SBNF 220320Z 24007KT CAVOK 12/11 Q1019

TAF

TAF SBNF 212230Z 2200/2224 06005KT CAVOK TN13/2209Z TX21/2217Z BECMG 2200/2202 25004KT PROB30 TEMPO 2207/2209 4000 BR NSC BECMG 2212/2214 15005KT BECMG 2222/2224 9999 FEW025 RMK PER

Frequencies

Recorded 127.62 MHz ATIS
Approach 119.50 MHz NAVEGANTES APP
Tower 118.20 MHz NAVEGANTES TWR
Warning: Do not use this data for real-world aviation or navigation. No guarantee of current accuracy is given.